createdAt,value
2019-04-26T00:02:32.103Z,20.96
2019-04-26T00:07:34.255Z,21.04
2019-04-26T00:12:46.610Z,20.88
2019-04-26T00:17:52.347Z,20.89
2019-04-26T00:22:56.587Z,20.89
2019-04-26T00:27:58.633Z,20.78
2019-04-26T00:33:00.673Z,20.81
2019-04-26T00:38:02.775Z,20.73
2019-04-26T00:43:05.098Z,20.71
2019-04-26T00:48:10.422Z,20.62
2019-04-26T00:53:14.969Z,20.58
2019-04-26T00:58:20.352Z,20.53
2019-04-26T01:03:22.834Z,20.46
2019-04-26T01:08:25.478Z,20.17
2019-04-26T01:13:27.737Z,20.03
2019-04-26T01:18:30.081Z,19.93
2019-04-26T01:23:35.778Z,19.83
2019-04-26T01:28:45.601Z,19.86
2019-04-26T01:33:48.447Z,19.88
2019-04-26T01:38:54.097Z,19.86
2019-04-26T01:44:22.740Z,19.74
2019-04-26T01:49:26.197Z,19.66
2019-04-26T01:54:35.049Z,19.69
2019-04-26T01:59:41.884Z,19.65
2019-04-26T02:04:47.241Z,19.55
2019-04-26T02:09:49.324Z,19.46
2019-04-26T02:14:51.389Z,19.29
2019-04-26T02:19:54.900Z,19.27
2019-04-26T02:24:57.125Z,19.28
2019-04-26T02:29:59.891Z,19.22
2019-04-26T02:35:02.442Z,19.17
2019-04-26T02:40:08.704Z,19.13
2019-04-26T02:46:10.397Z,19.10
2019-04-26T02:51:18.039Z,19.05
2019-04-26T02:56:30.273Z,18.93
2019-04-26T03:01:35.638Z,18.91
2019-04-26T03:06:41.159Z,18.89
2019-04-26T03:11:47.976Z,18.87
2019-04-26T03:17:19.220Z,18.80
2019-04-26T03:23:02.073Z,18.75
2019-04-26T03:28:32.673Z,18.62
2019-04-26T03:34:14.853Z,18.43
2019-04-26T03:39:34.657Z,18.46
2019-04-26T03:44:52.982Z,18.39
2019-04-26T03:50:08.991Z,18.36
2019-04-26T03:56:04.668Z,18.32
2019-04-26T04:01:10.050Z,18.24
2019-04-26T04:06:19.365Z,18.23
2019-04-26T04:11:27.552Z,18.18
2019-04-26T04:17:11.549Z,18.10
2019-04-26T04:22:17.226Z,18.06
2019-04-26T04:27:35.220Z,17.99
2019-04-26T04:33:07.340Z,17.92
2019-04-26T04:38:20.605Z,17.95
2019-04-26T04:43:37.954Z,17.95
2019-04-26T04:49:05.471Z,18.03
2019-04-26T04:54:19.770Z,17.94
2019-04-26T04:59:30.662Z,17.98
2019-04-26T05:05:05.891Z,18.03
2019-04-26T05:10:18.389Z,18.09
2019-04-26T05:16:12.772Z,18.08
2019-04-26T05:21:40.423Z,18.13
2019-04-26T05:27:29.743Z,20.38
2019-04-26T05:32:59.212Z,22.81
2019-04-26T05:38:29.533Z,24.91
2019-04-26T05:44:12.887Z,26.48
2019-04-26T05:50:11.924Z,27.84
2019-04-26T05:55:40.701Z,28.85
2019-04-26T06:01:27.078Z,29.63
2019-04-26T06:06:38.622Z,30.45
2019-04-26T06:11:52.865Z,31.57
2019-04-26T06:17:40.945Z,32.61
2019-04-26T06:23:07.908Z,31.48
2019-04-26T06:29:03.370Z,32.15
2019-04-26T06:34:18.355Z,31.39
2019-04-26T06:39:37.851Z,30.46
2019-04-26T06:45:10.545Z,30.17
2019-04-26T06:50:21.660Z,30.87
2019-04-26T06:55:37.429Z,30.65
2019-04-26T07:01:15.320Z,30.64
2019-04-26T07:06:34.556Z,30.32
2019-04-26T07:12:30.583Z,30.36
2019-04-26T07:17:58.476Z,29.41
2019-04-26T07:23:38.253Z,29.35
2019-04-26T07:29:03.095Z,28.86
2019-04-26T07:34:46.803Z,28.86
2019-04-26T07:40:30.263Z,28.34
2019-04-26T07:45:51.200Z,28.35
2019-04-26T07:51:50.285Z,27.83
2019-04-26T07:57:22.496Z,27.46
2019-04-26T08:02:55.747Z,27.36
2019-04-26T08:08:02.414Z,27.16
2019-04-26T08:13:08.585Z,26.93
2019-04-26T08:18:23.880Z,26.75
2019-04-26T08:23:39.476Z,26.57
2019-04-26T08:28:36.952Z,26.39
2019-04-26T08:33:48.711Z,26.51
2019-04-26T08:38:52.594Z,26.61
2019-04-26T08:44:17.268Z,26.40
2019-04-26T08:49:49.248Z,26.56
2019-04-26T08:54:55.164Z,26.59
2019-04-26T09:00:00.226Z,26.64
2019-04-26T09:05:34.139Z,26.50
2019-04-26T09:10:43.183Z,26.54
2019-04-26T09:16:06.041Z,26.40
2019-04-26T09:21:08.425Z,26.45
2019-04-26T09:26:13.680Z,26.44
2019-04-26T09:31:27.784Z,26.46
2019-04-26T09:36:29.892Z,26.47
2019-04-26T09:41:32.195Z,26.49
2019-04-26T09:46:54.216Z,26.47
2019-04-26T09:51:56.927Z,26.47
2019-04-26T09:56:59.027Z,26.36
2019-04-26T10:02:01.127Z,26.42
2019-04-26T10:07:04.191Z,26.43
2019-04-26T10:12:14.616Z,26.37
2019-04-26T10:17:20.875Z,26.42
2019-04-26T10:22:24.637Z,26.39
2019-04-26T10:27:26.699Z,26.43
2019-04-26T10:32:28.748Z,26.38
2019-04-26T10:37:39.235Z,26.32
2019-04-26T10:42:34.827Z,26.24
2019-04-26T10:47:38.500Z,26.14
2019-04-26T10:53:03.132Z,26.23
2019-04-26T10:58:31.928Z,26.30
2019-04-26T11:03:35.208Z,26.29
2019-04-26T11:08:37.367Z,26.41
2019-04-26T11:13:39.447Z,26.66
2019-04-26T11:18:41.587Z,26.80
2019-04-26T11:23:45.474Z,26.78
2019-04-26T11:28:51.447Z,26.85
2019-04-26T11:33:51.719Z,26.81
2019-04-26T11:38:53.763Z,26.53
2019-04-26T11:43:55.941Z,26.32
2019-04-26T11:48:59.308Z,26.38
2019-04-26T11:54:01.837Z,26.41
2019-04-26T11:59:04.267Z,26.22
2019-04-26T12:04:26.067Z,26.27
2019-04-26T12:09:36.508Z,26.10
2019-04-26T12:14:40.370Z,25.94
2019-04-26T12:19:42.437Z,25.88
2019-04-26T12:24:44.630Z,25.84
2019-04-26T12:29:48.246Z,25.77
2019-04-26T12:34:50.789Z,25.75
2019-04-26T12:39:53.286Z,25.76
2019-04-26T12:45:12.174Z,25.68
2019-04-26T12:50:15.726Z,25.68
2019-04-26T12:55:18.447Z,25.70
2019-04-26T13:00:26.144Z,25.67
2019-04-26T13:05:28.319Z,25.56
2019-04-26T13:10:50.058Z,25.54
2019-04-26T13:16:14.674Z,25.68
2019-04-26T13:21:16.949Z,25.77
2019-04-26T13:26:20.751Z,25.72
2019-04-26T13:31:22.820Z,25.68
2019-04-26T13:36:25.238Z,25.60
2019-04-26T13:41:28.032Z,25.59
2019-04-26T13:46:41.794Z,25.61
2019-04-26T13:51:44.241Z,25.67
2019-04-26T13:56:46.352Z,25.34
2019-04-26T14:01:48.459Z,25.23
2019-04-26T14:06:50.517Z,25.22
2019-04-26T14:11:52.635Z,24.99
2019-04-26T14:16:55.841Z,24.73
2019-04-26T14:21:58.704Z,24.57
2019-04-26T14:27:04.128Z,24.38
2019-04-26T14:32:06.289Z,24.18
2019-04-26T14:37:11.135Z,24.18
2019-04-26T14:42:12.281Z,24.02
2019-04-26T14:47:17.738Z,23.78
2019-04-26T14:52:18.385Z,23.76
2019-04-26T14:57:26.640Z,23.73
2019-04-26T15:02:48.553Z,23.65
2019-04-26T15:07:53.568Z,23.54
2019-04-26T15:13:05.834Z,23.41
2019-04-26T15:17:59.657Z,23.26
2019-04-26T15:23:03.210Z,23.12
2019-04-26T15:28:06.814Z,23.10
2019-04-26T15:33:12.872Z,22.97
2019-04-26T15:38:13.331Z,22.88
2019-04-26T15:43:23.813Z,22.68
2019-04-26T15:48:32.236Z,22.60
2019-04-26T15:53:34.414Z,22.52
2019-04-26T15:58:38.110Z,22.45
2019-04-26T16:03:40.844Z,22.38
2019-04-26T16:08:44.640Z,22.15
2019-04-26T16:13:54.242Z,21.93
2019-04-26T16:18:55.545Z,21.85
2019-04-26T16:23:55.362Z,21.69
2019-04-26T16:29:18.393Z,21.46
2019-04-26T16:34:23.399Z,21.24
2019-04-26T16:39:32.345Z,21.03
2019-04-26T16:44:31.479Z,20.93
2019-04-26T16:49:40.809Z,20.88
2019-04-26T16:54:37.658Z,20.66
2019-04-26T16:59:47.482Z,20.47
2019-04-26T17:04:44.074Z,20.38
2019-04-26T17:10:03.161Z,20.26
2019-04-26T17:14:53.436Z,20.19
2019-04-26T17:19:55.573Z,20.05
2019-04-26T17:25:29.706Z,19.89
2019-04-26T17:30:34.511Z,19.76
2019-04-26T17:35:36.710Z,19.63
2019-04-26T17:40:41.821Z,19.61
2019-04-26T17:45:44.329Z,19.45
2019-04-26T17:50:46.390Z,19.35
2019-04-26T17:55:53.027Z,19.29
2019-04-26T18:00:56.400Z,19.25
2019-04-26T18:05:57.716Z,19.23
2019-04-26T18:11:00.879Z,19.12
2019-04-26T18:16:03.679Z,18.85
2019-04-26T18:21:36.847Z,18.76
2019-04-26T18:26:39.038Z,18.70
2019-04-26T18:31:41.354Z,18.56
2019-04-26T18:36:43.429Z,18.59
2019-04-26T18:41:45.490Z,18.61
2019-04-26T18:47:05.944Z,18.50
2019-04-26T18:52:08.922Z,18.26
2019-04-26T18:57:15.611Z,18.00
2019-04-26T19:02:18.651Z,17.75
2019-04-26T19:07:31.509Z,17.55
2019-04-26T19:12:26.964Z,17.47
2019-04-26T19:17:51.505Z,17.28
2019-04-26T19:23:00.944Z,17.23
2019-04-26T19:28:08.151Z,17.13
2019-04-26T19:33:16.592Z,17.07
2019-04-26T19:38:16.146Z,16.95
2019-04-26T19:43:30.232Z,16.86
2019-04-26T19:48:37.824Z,16.83
2019-04-26T19:53:47.290Z,16.75
2019-04-26T19:58:57.478Z,16.63
2019-04-26T20:03:55.449Z,16.62
2019-04-26T20:08:57.767Z,16.54
2019-04-26T20:14:01.428Z,16.50
2019-04-26T20:19:04.013Z,16.33
2019-04-26T20:24:06.087Z,16.33
2019-04-26T20:29:10.173Z,16.17
2019-04-26T20:34:14.409Z,16.25
2019-04-26T20:39:20.935Z,16.22
2019-04-26T20:44:23.832Z,16.17
2019-04-26T20:49:24.870Z,16.06
2019-04-26T20:54:27.174Z,16.02
2019-04-26T20:59:29.340Z,15.96
2019-04-26T21:04:37.923Z,15.68
2019-04-26T21:09:36.426Z,15.58
2019-04-26T21:14:44.580Z,15.62
2019-04-26T21:19:43.391Z,15.65
2019-04-26T21:24:50.637Z,15.66
2019-04-26T21:30:09.983Z,15.62
2019-04-26T21:35:14.257Z,15.65
2019-04-26T21:40:31.095Z,15.63
2019-04-26T21:45:34.020Z,15.63
2019-04-26T21:50:38.956Z,15.56
2019-04-26T21:55:40.209Z,15.48
2019-04-26T22:01:03.026Z,15.47
2019-04-26T22:06:06.431Z,15.44
2019-04-26T22:11:08.524Z,15.42
2019-04-26T22:16:33.944Z,15.42
2019-04-26T22:21:36.084Z,15.34
2019-04-26T22:26:44.453Z,15.37
2019-04-26T22:31:42.618Z,15.27
2019-04-26T22:36:44.740Z,15.26
2019-04-26T22:41:46.870Z,15.18
2019-04-26T22:47:06.898Z,15.17
2019-04-26T22:52:11.116Z,15.15
2019-04-26T22:57:16.224Z,15.11
2019-04-26T23:02:26.262Z,14.91
2019-04-26T23:07:26.143Z,14.86
2019-04-26T23:12:53.949Z,14.79
2019-04-26T23:18:21.474Z,14.79
2019-04-26T23:23:23.769Z,14.62
2019-04-26T23:28:27.741Z,14.63
2019-04-26T23:33:29.964Z,14.66
2019-04-26T23:38:34.507Z,14.57
2019-04-26T23:43:35.990Z,14.65
2019-04-26T23:48:38.058Z,14.74
2019-04-26T23:53:40.166Z,14.82
2019-04-26T23:58:44.169Z,14.86
